sensor_id;sensor_type;location;lat;lon;timestamp;temperature;humidity
60717;DHT22;46566;52.700;6.192;2022-08-30T00:00:14;16.60;99.90
60717;DHT22;46566;52.700;6.192;2022-08-30T00:02:59;16.60;99.90
60717;DHT22;46566;52.700;6.192;2022-08-30T00:05:26;16.70;99.90
60717;DHT22;46566;52.700;6.192;2022-08-30T00:07:52;16.70;99.90
60717;DHT22;46566;52.700;6.192;2022-08-30T00:10:19;16.60;99.90
60717;DHT22;46566;52.700;6.192;2022-08-30T00:12:45;16.60;99.90
60717;DHT22;46566;52.700;6.192;2022-08-30T00:15:13;16.60;99.90
60717;DHT22;46566;52.700;6.192;2022-08-30T00:17:40;16.60;99.90
60717;DHT22;46566;52.700;6.192;2022-08-30T00:20:09;16.50;99.90
60717;DHT22;46566;52.700;6.192;2022-08-30T00:22:36;16.50;99.90
60717;DHT22;46566;52.700;6.192;2022-08-30T00:25:02;16.50;99.90
60717;DHT22;46566;52.700;6.192;2022-08-30T00:27:28;16.50;99.90
60717;DHT22;46566;52.700;6.192;2022-08-30T00:29:55;16.50;99.90
60717;DHT22;46566;52.700;6.192;2022-08-30T00:32:21;16.40;99.90
60717;DHT22;46566;52.700;6.192;2022-08-30T00:34:48;16.30;99.90
60717;DHT22;46566;52.700;6.192;2022-08-30T00:37:14;16.30;99.90
60717;DHT22;46566;52.700;6.192;2022-08-30T00:39:40;16.20;99.90
60717;DHT22;46566;52.700;6.192;2022-08-30T00:42:07;16.10;99.90
60717;DHT22;46566;52.700;6.192;2022-08-30T00:44:33;16.10;99.90
60717;DHT22;46566;52.700;6.192;2022-08-30T00:46:58;16.10;99.90
60717;DHT22;46566;52.700;6.192;2022-08-30T00:49:24;16.10;99.90
60717;DHT22;46566;52.700;6.192;2022-08-30T00:51:51;16.00;99.90
60717;DHT22;46566;52.700;6.192;2022-08-30T00:54:18;16.00;99.90
60717;DHT22;46566;52.700;6.192;2022-08-30T00:56:46;15.90;99.90
60717;DHT22;46566;52.700;6.192;2022-08-30T00:59:12;15.90;99.90
60717;DHT22;46566;52.700;6.192;2022-08-30T01:01:38;15.80;99.90
60717;DHT22;46566;52.700;6.192;2022-08-30T01:04:05;15.80;99.90
60717;DHT22;46566;52.700;6.192;2022-08-30T01:06:33;15.70;99.90
60717;DHT22;46566;52.700;6.192;2022-08-30T01:09:01;15.70;99.90
60717;DHT22;46566;52.700;6.192;2022-08-30T01:11:28;15.70;99.90
60717;DHT22;46566;52.700;6.192;2022-08-30T01:13:55;15.80;99.90
60717;DHT22;46566;52.700;6.192;2022-08-30T01:16:23;15.70;99.90
60717;DHT22;46566;52.700;6.192;2022-08-30T01:18:52;15.70;99.90
60717;DHT22;46566;52.700;6.192;2022-08-30T01:21:31;15.70;99.90
60717;DHT22;46566;52.700;6.192;2022-08-30T01:24:00;15.70;99.90
60717;DHT22;46566;52.700;6.192;2022-08-30T01:26:28;15.70;99.90
60717;DHT22;46566;52.700;6.192;2022-08-30T01:28:57;15.70;99.90
60717;DHT22;46566;52.700;6.192;2022-08-30T01:31:24;15.60;99.90
60717;DHT22;46566;52.700;6.192;2022-08-30T01:33:50;15.60;99.90
60717;DHT22;46566;52.700;6.192;2022-08-30T01:36:16;15.50;99.90
60717;DHT22;46566;52.700;6.192;2022-08-30T01:38:52;15.50;99.90
60717;DHT22;46566;52.700;6.192;2022-08-30T01:41:29;15.50;99.90
60717;DHT22;46566;52.700;6.192;2022-08-30T01:43:59;15.50;99.90
60717;DHT22;46566;52.700;6.192;2022-08-30T01:46:28;15.50;99.90
60717;DHT22;46566;52.700;6.192;2022-08-30T01:48:55;15.40;99.90
60717;DHT22;46566;52.700;6.192;2022-08-30T01:51:24;15.50;99.90
60717;DHT22;46566;52.700;6.192;2022-08-30T01:53:50;15.50;99.90
60717;DHT22;46566;52.700;6.192;2022-08-30T01:56:16;15.50;99.90
60717;DHT22;46566;52.700;6.192;2022-08-30T01:58:43;15.50;99.90
60717;DHT22;46566;52.700;6.192;2022-08-30T02:01:11;15.50;99.90
60717;DHT22;46566;52.700;6.192;2022-08-30T02:03:38;15.50;99.90
60717;DHT22;46566;52.700;6.192;2022-08-30T02:06:07;15.50;99.90
60717;DHT22;46566;52.700;6.192;2022-08-30T02:08:33;15.40;99.90
60717;DHT22;46566;52.700;6.192;2022-08-30T02:11:00;15.40;99.90
60717;DHT22;46566;52.700;6.192;2022-08-30T02:13:26;15.40;99.90
60717;DHT22;46566;52.700;6.192;2022-08-30T02:15:53;15.40;99.90
60717;DHT22;46566;52.700;6.192;2022-08-30T02:18:21;15.30;99.90
60717;DHT22;46566;52.700;6.192;2022-08-30T02:20:47;15.30;99.90
60717;DHT22;46566;52.700;6.192;2022-08-30T02:23:13;15.30;99.90
60717;DHT22;46566;52.700;6.192;2022-08-30T02:25:39;15.20;99.90
60717;DHT22;46566;52.700;6.192;2022-08-30T02:28:06;15.20;99.90
60717;DHT22;46566;52.700;6.192;2022-08-30T02:30:32;15.20;99.90
60717;DHT22;46566;52.700;6.192;2022-08-30T02:32:58;15.20;99.90
60717;DHT22;46566;52.700;6.192;2022-08-30T02:35:24;15.20;99.90
60717;DHT22;46566;52.700;6.192;2022-08-30T02:37:50;15.20;99.90
60717;DHT22;46566;52.700;6.192;2022-08-30T02:40:17;15.20;99.90
60717;DHT22;46566;52.700;6.192;2022-08-30T02:42:43;15.20;99.90
60717;DHT22;46566;52.700;6.192;2022-08-30T02:45:10;15.20;99.90
60717;DHT22;46566;52.700;6.192;2022-08-30T02:47:36;15.20;99.90
60717;DHT22;46566;52.700;6.192;2022-08-30T02:50:04;15.10;99.90
60717;DHT22;46566;52.700;6.192;2022-08-30T02:52:30;15.10;99.90
60717;DHT22;46566;52.700;6.192;2022-08-30T02:54:56;15.10;99.90
60717;DHT22;46566;52.700;6.192;2022-08-30T02:57:21;15.10;99.90
60717;DHT22;46566;52.700;6.192;2022-08-30T02:59:48;15.20;99.90
60717;DHT22;46566;52.700;6.192;2022-08-30T03:02:14;15.10;99.90
60717;DHT22;46566;52.700;6.192;2022-08-30T03:04:40;15.10;99.90
60717;DHT22;46566;52.700;6.192;2022-08-30T03:07:07;15.10;99.90
60717;DHT22;46566;52.700;6.192;2022-08-30T03:09:35;15.10;99.90
60717;DHT22;46566;52.700;6.192;2022-08-30T03:12:01;15.10;99.90
60717;DHT22;46566;52.700;6.192;2022-08-30T03:14:27;15.10;99.90
60717;DHT22;46566;52.700;6.192;2022-08-30T03:16:53;15.10;99.90
60717;DHT22;46566;52.700;6.192;2022-08-30T03:19:19;15.00;99.90
60717;DHT22;46566;52.700;6.192;2022-08-30T03:21:45;15.00;99.90
60717;DHT22;46566;52.700;6.192;2022-08-30T03:24:11;15.00;99.90
60717;DHT22;46566;52.700;6.192;2022-08-30T03:26:38;15.00;99.90
60717;DHT22;46566;52.700;6.192;2022-08-30T03:29:04;15.00;99.90
60717;DHT22;46566;52.700;6.192;2022-08-30T03:31:29;15.00;99.90
60717;DHT22;46566;52.700;6.192;2022-08-30T03:33:55;15.00;99.90
60717;DHT22;46566;52.700;6.192;2022-08-30T03:36:21;14.90;99.90
60717;DHT22;46566;52.700;6.192;2022-08-30T03:38:47;14.90;99.90
60717;DHT22;46566;52.700;6.192;2022-08-30T03:41:12;14.90;99.90
60717;DHT22;46566;52.700;6.192;2022-08-30T03:43:38;14.90;99.90
60717;DHT22;46566;52.700;6.192;2022-08-30T03:46:04;15.00;99.90
60717;DHT22;46566;52.700;6.192;2022-08-30T03:48:30;14.90;99.90
60717;DHT22;46566;52.700;6.192;2022-08-30T03:50:56;14.80;99.90
60717;DHT22;46566;52.700;6.192;2022-08-30T03:53:22;14.80;99.90
60717;DHT22;46566;52.700;6.192;2022-08-30T03:55:48;14.80;99.90
60717;DHT22;46566;52.700;6.192;2022-08-30T03:58:14;14.90;99.90
60717;DHT22;46566;52.700;6.192;2022-08-30T04:00:40;14.90;99.90
60717;DHT22;46566;52.700;6.192;2022-08-30T04:03:05;14.90;99.90
60717;DHT22;46566;52.700;6.192;2022-08-30T04:05:31;14.80;99.90
60717;DHT22;46566;52.700;6.192;2022-08-30T04:07:57;14.80;99.90
60717;DHT22;46566;52.700;6.192;2022-08-30T04:10:23;14.80;99.90
60717;DHT22;46566;52.700;6.192;2022-08-30T04:12:49;14.70;99.90
60717;DHT22;46566;52.700;6.192;2022-08-30T04:15:16;14.90;99.90
60717;DHT22;46566;52.700;6.192;2022-08-30T04:17:42;14.80;99.90
60717;DHT22;46566;52.700;6.192;2022-08-30T04:20:08;14.80;99.90
60717;DHT22;46566;52.700;6.192;2022-08-30T04:22:35;14.70;99.90
60717;DHT22;46566;52.700;6.192;2022-08-30T04:25:02;14.60;99.90
60717;DHT22;46566;52.700;6.192;2022-08-30T04:27:28;14.60;99.90
60717;DHT22;46566;52.700;6.192;2022-08-30T04:29:54;14.60;99.90
60717;DHT22;46566;52.700;6.192;2022-08-30T04:32:21;14.60;99.90
60717;DHT22;46566;52.700;6.192;2022-08-30T04:34:47;14.60;99.90
60717;DHT22;46566;52.700;6.192;2022-08-30T04:37:12;14.60;99.90
60717;DHT22;46566;52.700;6.192;2022-08-30T04:39:39;14.50;99.90
60717;DHT22;46566;52.700;6.192;2022-08-30T04:42:05;14.50;99.90
60717;DHT22;46566;52.700;6.192;2022-08-30T04:44:31;14.40;99.90
60717;DHT22;46566;52.700;6.192;2022-08-30T04:46:58;14.40;99.90
60717;DHT22;46566;52.700;6.192;2022-08-30T04:49:24;14.40;99.90
60717;DHT22;46566;52.700;6.192;2022-08-30T04:51:50;14.40;99.90
60717;DHT22;46566;52.700;6.192;2022-08-30T04:54:15;14.30;99.90
60717;DHT22;46566;52.700;6.192;2022-08-30T04:56:41;14.30;99.90
60717;DHT22;46566;52.700;6.192;2022-08-30T04:59:08;14.30;99.90
60717;DHT22;46566;52.700;6.192;2022-08-30T05:01:34;14.20;99.90
60717;DHT22;46566;52.700;6.192;2022-08-30T05:04:00;14.20;99.90
60717;DHT22;46566;52.700;6.192;2022-08-30T05:06:29;14.20;99.90
60717;DHT22;46566;52.700;6.192;2022-08-30T05:08:58;14.10;99.90
60717;DHT22;46566;52.700;6.192;2022-08-30T05:11:25;14.10;99.90
60717;DHT22;46566;52.700;6.192;2022-08-30T05:13:51;14.10;99.90
60717;DHT22;46566;52.700;6.192;2022-08-30T05:16:17;14.00;99.90
60717;DHT22;46566;52.700;6.192;2022-08-30T05:18:48;14.10;99.90
60717;DHT22;46566;52.700;6.192;2022-08-30T05:21:17;14.10;99.90
60717;DHT22;46566;52.700;6.192;2022-08-30T05:23:43;14.00;99.90
60717;DHT22;46566;52.700;6.192;2022-08-30T05:26:13;14.00;99.90
60717;DHT22;46566;52.700;6.192;2022-08-30T05:28:40;14.10;99.90
60717;DHT22;46566;52.700;6.192;2022-08-30T05:31:34;14.00;99.90
60717;DHT22;46566;52.700;6.192;2022-08-30T05:34:00;14.10;99.90
60717;DHT22;46566;52.700;6.192;2022-08-30T05:36:29;14.00;99.90
60717;DHT22;46566;52.700;6.192;2022-08-30T05:38:55;14.10;99.90
60717;DHT22;46566;52.700;6.192;2022-08-30T05:41:22;14.10;99.90
60717;DHT22;46566;52.700;6.192;2022-08-30T05:43:52;14.10;99.90
60717;DHT22;46566;52.700;6.192;2022-08-30T05:46:18;14.10;99.90
60717;DHT22;46566;52.700;6.192;2022-08-30T05:48:44;14.10;99.90
60717;DHT22;46566;52.700;6.192;2022-08-30T05:51:17;14.10;99.90
60717;DHT22;46566;52.700;6.192;2022-08-30T05:53:45;14.10;99.90
60717;DHT22;46566;52.700;6.192;2022-08-30T05:56:15;14.10;99.90
60717;DHT22;46566;52.700;6.192;2022-08-30T05:58:41;14.20;99.90
60717;DHT22;46566;52.700;6.192;2022-08-30T06:01:18;14.20;99.90
60717;DHT22;46566;52.700;6.192;2022-08-30T06:03:44;14.20;99.90
60717;DHT22;46566;52.700;6.192;2022-08-30T06:06:09;14.20;99.90
60717;DHT22;46566;52.700;6.192;2022-08-30T06:08:35;14.20;99.90
60717;DHT22;46566;52.700;6.192;2022-08-30T06:11:01;14.20;99.90
60717;DHT22;46566;52.700;6.192;2022-08-30T06:13:26;14.30;99.90
60717;DHT22;46566;52.700;6.192;2022-08-30T06:15:52;14.30;99.90
60717;DHT22;46566;52.700;6.192;2022-08-30T06:18:18;14.30;99.90
60717;DHT22;46566;52.700;6.192;2022-08-30T06:20:44;14.40;99.90
60717;DHT22;46566;52.700;6.192;2022-08-30T06:23:14;14.40;99.90
60717;DHT22;46566;52.700;6.192;2022-08-30T06:25:42;14.40;99.90
60717;DHT22;46566;52.700;6.192;2022-08-30T06:28:09;14.50;99.90
60717;DHT22;46566;52.700;6.192;2022-08-30T06:30:35;14.50;99.90
60717;DHT22;46566;52.700;6.192;2022-08-30T06:33:01;14.60;99.90
60717;DHT22;46566;52.700;6.192;2022-08-30T06:35:27;14.60;99.90
60717;DHT22;46566;52.700;6.192;2022-08-30T06:37:53;14.70;99.90
60717;DHT22;46566;52.700;6.192;2022-08-30T06:40:19;14.70;99.90
60717;DHT22;46566;52.700;6.192;2022-08-30T06:42:47;14.70;99.90
60717;DHT22;46566;52.700;6.192;2022-08-30T06:45:13;14.80;99.90
60717;DHT22;46566;52.700;6.192;2022-08-30T06:47:40;14.90;99.90
60717;DHT22;46566;52.700;6.192;2022-08-30T06:50:07;15.00;99.90
60717;DHT22;46566;52.700;6.192;2022-08-30T06:52:33;15.00;99.90
60717;DHT22;46566;52.700;6.192;2022-08-30T06:54:59;15.00;99.90
60717;DHT22;46566;52.700;6.192;2022-08-30T06:57:26;15.10;99.90
60717;DHT22;46566;52.700;6.192;2022-08-30T06:59:56;15.20;99.90
60717;DHT22;46566;52.700;6.192;2022-08-30T07:02:21;15.30;99.90
60717;DHT22;46566;52.700;6.192;2022-08-30T07:04:47;15.30;99.90
60717;DHT22;46566;52.700;6.192;2022-08-30T07:07:13;15.40;99.90
60717;DHT22;46566;52.700;6.192;2022-08-30T07:09:39;15.50;99.90
60717;DHT22;46566;52.700;6.192;2022-08-30T07:14:35;15.50;99.90
60717;DHT22;46566;52.700;6.192;2022-08-30T07:17:01;15.80;99.90
60717;DHT22;46566;52.700;6.192;2022-08-30T07:19:26;15.70;99.90
60717;DHT22;46566;52.700;6.192;2022-08-30T07:21:52;15.80;99.90
60717;DHT22;46566;52.700;6.192;2022-08-30T07:24:19;15.90;99.90
60717;DHT22;46566;52.700;6.192;2022-08-30T07:26:47;16.00;99.90
60717;DHT22;46566;52.700;6.192;2022-08-30T07:29:15;16.10;99.90
60717;DHT22;46566;52.700;6.192;2022-08-30T07:31:41;16.20;99.90
60717;DHT22;46566;52.700;6.192;2022-08-30T07:34:07;16.30;99.90
60717;DHT22;46566;52.700;6.192;2022-08-30T07:36:35;16.40;99.90
60717;DHT22;46566;52.700;6.192;2022-08-30T07:39:03;16.50;99.90
60717;DHT22;46566;52.700;6.192;2022-08-30T07:41:31;16.60;99.90
60717;DHT22;46566;52.700;6.192;2022-08-30T07:43:58;16.70;99.90
60717;DHT22;46566;52.700;6.192;2022-08-30T07:46:24;16.80;99.90
60717;DHT22;46566;52.700;6.192;2022-08-30T07:48:50;16.90;99.90
60717;DHT22;46566;52.700;6.192;2022-08-30T07:51:21;17.00;99.90
60717;DHT22;46566;52.700;6.192;2022-08-30T07:53:47;17.20;99.90
60717;DHT22;46566;52.700;6.192;2022-08-30T07:56:13;17.30;99.90
60717;DHT22;46566;52.700;6.192;2022-08-30T07:58:39;17.50;99.90
60717;DHT22;46566;52.700;6.192;2022-08-30T08:01:07;17.70;99.90
60717;DHT22;46566;52.700;6.192;2022-08-30T08:03:33;18.20;99.90
60717;DHT22;46566;52.700;6.192;2022-08-30T08:06:02;19.50;99.90
60717;DHT22;46566;52.700;6.192;2022-08-30T08:08:28;20.90;99.90
60717;DHT22;46566;52.700;6.192;2022-08-30T08:10:54;22.20;99.90
60717;DHT22;46566;52.700;6.192;2022-08-30T08:13:20;23.20;99.90
60717;DHT22;46566;52.700;6.192;2022-08-30T08:15:48;24.00;91.40
60717;DHT22;46566;52.700;6.192;2022-08-30T08:18:14;24.70;81.80
60717;DHT22;46566;52.700;6.192;2022-08-30T08:20:39;25.20;71.90
60717;DHT22;46566;52.700;6.192;2022-08-30T08:23:05;25.70;65.20
60717;DHT22;46566;52.700;6.192;2022-08-30T08:25:31;26.10;65.00
60717;DHT22;46566;52.700;6.192;2022-08-30T08:27:57;26.60;61.70
60717;DHT22;46566;52.700;6.192;2022-08-30T08:30:23;26.90;60.50
60717;DHT22;46566;52.700;6.192;2022-08-30T08:32:49;27.30;59.70
60717;DHT22;46566;52.700;6.192;2022-08-30T08:35:16;27.70;57.00
60717;DHT22;46566;52.700;6.192;2022-08-30T08:37:42;28.00;54.40
60717;DHT22;46566;52.700;6.192;2022-08-30T08:40:16;28.10;54.20
60717;DHT22;46566;52.700;6.192;2022-08-30T08:45:28;28.80;51.60
60717;DHT22;46566;52.700;6.192;2022-08-30T08:48:01;29.20;52.10
60717;DHT22;46566;52.700;6.192;2022-08-30T08:50:28;29.10;49.80
60717;DHT22;46566;52.700;6.192;2022-08-30T08:53:06;29.50;50.20
60717;DHT22;46566;52.700;6.192;2022-08-30T08:55:53;29.80;54.70
60717;DHT22;46566;52.700;6.192;2022-08-30T08:58:27;29.80;54.20
60717;DHT22;46566;52.700;6.192;2022-08-30T09:00:54;29.60;61.40
60717;DHT22;46566;52.700;6.192;2022-08-30T09:03:23;30.00;67.00
60717;DHT22;46566;52.700;6.192;2022-08-30T09:05:51;30.20;57.00
60717;DHT22;46566;52.700;6.192;2022-08-30T09:08:19;30.30;51.60
60717;DHT22;46566;52.700;6.192;2022-08-30T09:10:54;30.30;48.10
60717;DHT22;46566;52.700;6.192;2022-08-30T09:13:23;30.30;46.20
60717;DHT22;46566;52.700;6.192;2022-08-30T09:15:51;30.10;47.30
60717;DHT22;46566;52.700;6.192;2022-08-30T09:18:18;30.10;48.80
60717;DHT22;46566;52.700;6.192;2022-08-30T09:20:46;30.00;46.80
60717;DHT22;46566;52.700;6.192;2022-08-30T09:26:05;28.90;47.70
60717;DHT22;46566;52.700;6.192;2022-08-30T09:28:46;28.20;48.60
60717;DHT22;46566;52.700;6.192;2022-08-30T09:31:27;27.50;50.40
60717;DHT22;46566;52.700;6.192;2022-08-30T09:34:04;27.20;50.60
60717;DHT22;46566;52.700;6.192;2022-08-30T09:36:40;27.00;51.00
60717;DHT22;46566;52.700;6.192;2022-08-30T09:39:17;26.90;51.40
60717;DHT22;46566;52.700;6.192;2022-08-30T09:41:46;27.00;54.60
60717;DHT22;46566;52.700;6.192;2022-08-30T09:44:17;27.10;51.90
60717;DHT22;46566;52.700;6.192;2022-08-30T09:46:53;26.90;50.90
60717;DHT22;46566;52.700;6.192;2022-08-30T09:49:38;26.70;53.00
60717;DHT22;46566;52.700;6.192;2022-08-30T09:58:22;27.10;51.50
60717;DHT22;46566;52.700;6.192;2022-08-30T10:03:56;26.80;50.40
60717;DHT22;46566;52.700;6.192;2022-08-30T10:07:25;26.70;51.10
60717;DHT22;46566;52.700;6.192;2022-08-30T10:09:58;26.70;50.40
60717;DHT22;46566;52.700;6.192;2022-08-30T10:15:27;27.00;51.50
60717;DHT22;46566;52.700;6.192;2022-08-30T10:18:02;27.10;50.10
60717;DHT22;46566;52.700;6.192;2022-08-30T10:20:41;27.10;49.00
60717;DHT22;46566;52.700;6.192;2022-08-30T10:23:16;26.90;49.20
60717;DHT22;46566;52.700;6.192;2022-08-30T10:25:54;26.90;51.30
60717;DHT22;46566;52.700;6.192;2022-08-30T10:30:58;27.00;50.40
60717;DHT22;46566;52.700;6.192;2022-08-30T10:33:44;27.20;52.00
60717;DHT22;46566;52.700;6.192;2022-08-30T10:36:13;27.30;50.00
60717;DHT22;46566;52.700;6.192;2022-08-30T10:38:45;27.00;48.40
60717;DHT22;46566;52.700;6.192;2022-08-30T10:49:31;27.00;48.40
60717;DHT22;46566;52.700;6.192;2022-08-30T10:57:17;27.20;48.90
60717;DHT22;46566;52.700;6.192;2022-08-30T10:59:47;27.40;50.00
60717;DHT22;46566;52.700;6.192;2022-08-30T11:05:06;27.40;47.80
60717;DHT22;46566;52.700;6.192;2022-08-30T11:10:36;27.60;48.80
60717;DHT22;46566;52.700;6.192;2022-08-30T11:13:18;27.70;47.80
60717;DHT22;46566;52.700;6.192;2022-08-30T11:16:07;27.80;47.30
60717;DHT22;46566;52.700;6.192;2022-08-30T11:18:48;28.00;47.00
60717;DHT22;46566;52.700;6.192;2022-08-30T11:21:23;28.30;47.70
60717;DHT22;46566;52.700;6.192;2022-08-30T11:29:39;28.50;46.30
60717;DHT22;46566;52.700;6.192;2022-08-30T11:42:26;28.50;46.30
60717;DHT22;46566;52.700;6.192;2022-08-30T11:47:57;28.50;45.10
60717;DHT22;46566;52.700;6.192;2022-08-30T11:50:57;28.40;45.00
60717;DHT22;46566;52.700;6.192;2022-08-30T11:53:47;28.10;44.40
60717;DHT22;46566;52.700;6.192;2022-08-30T11:57:09;28.10;45.90
60717;DHT22;46566;52.700;6.192;2022-08-30T12:02:00;28.10;44.80
60717;DHT22;46566;52.700;6.192;2022-08-30T12:04:35;28.10;46.30
60717;DHT22;46566;52.700;6.192;2022-08-30T12:07:06;28.20;45.40
60717;DHT22;46566;52.700;6.192;2022-08-30T12:15:03;28.30;46.30
60717;DHT22;46566;52.700;6.192;2022-08-30T12:17:48;28.50;45.90
60717;DHT22;46566;52.700;6.192;2022-08-30T12:20:52;28.60;46.50
60717;DHT22;46566;52.700;6.192;2022-08-30T12:23:22;28.30;45.20
60717;DHT22;46566;52.700;6.192;2022-08-30T12:25:48;28.30;46.20
60717;DHT22;46566;52.700;6.192;2022-08-30T12:28:25;28.30;44.70
60717;DHT22;46566;52.700;6.192;2022-08-30T12:30:52;28.30;45.00
60717;DHT22;46566;52.700;6.192;2022-08-30T12:33:28;28.30;45.50
60717;DHT22;46566;52.700;6.192;2022-08-30T12:35:58;28.50;45.30
60717;DHT22;46566;52.700;6.192;2022-08-30T12:38:27;28.60;44.70
60717;DHT22;46566;52.700;6.192;2022-08-30T12:41:00;28.60;42.90
60717;DHT22;46566;52.700;6.192;2022-08-30T12:43:27;28.40;43.80
60717;DHT22;46566;52.700;6.192;2022-08-30T12:45:57;28.40;44.70
60717;DHT22;46566;52.700;6.192;2022-08-30T12:48:25;28.40;45.20
60717;DHT22;46566;52.700;6.192;2022-08-30T12:50:57;28.40;44.80
60717;DHT22;46566;52.700;6.192;2022-08-30T12:53:38;28.50;43.80
60717;DHT22;46566;52.700;6.192;2022-08-30T12:56:12;28.40;44.40
60717;DHT22;46566;52.700;6.192;2022-08-30T12:58:48;28.40;44.90
60717;DHT22;46566;52.700;6.192;2022-08-30T13:06:51;28.40;43.60
60717;DHT22;46566;52.700;6.192;2022-08-30T13:11:52;28.70;43.90
60717;DHT22;46566;52.700;6.192;2022-08-30T13:14:42;28.70;43.40
60717;DHT22;46566;52.700;6.192;2022-08-30T13:17:25;28.40;41.40
60717;DHT22;46566;52.700;6.192;2022-08-30T13:25:25;28.80;43.60
60717;DHT22;46566;52.700;6.192;2022-08-30T13:27:51;28.80;43.30
60717;DHT22;46566;52.700;6.192;2022-08-30T13:30:16;28.90;42.80
60717;DHT22;46566;52.700;6.192;2022-08-30T13:32:43;28.90;43.10
60717;DHT22;46566;52.700;6.192;2022-08-30T13:35:09;28.80;42.10
60717;DHT22;46566;52.700;6.192;2022-08-30T13:37:36;28.60;41.80
60717;DHT22;46566;52.700;6.192;2022-08-30T13:40:04;28.50;42.40
60717;DHT22;46566;52.700;6.192;2022-08-30T13:42:30;28.50;42.90
60717;DHT22;46566;52.700;6.192;2022-08-30T13:44:56;28.70;43.50
60717;DHT22;46566;52.700;6.192;2022-08-30T13:47:21;28.80;44.30
60717;DHT22;46566;52.700;6.192;2022-08-30T13:49:47;28.50;42.20
60717;DHT22;46566;52.700;6.192;2022-08-30T13:52:15;28.40;41.60
60717;DHT22;46566;52.700;6.192;2022-08-30T13:54:43;28.40;42.00
60717;DHT22;46566;52.700;6.192;2022-08-30T13:57:10;28.40;42.50
60717;DHT22;46566;52.700;6.192;2022-08-30T13:59:36;28.50;43.80
60717;DHT22;46566;52.700;6.192;2022-08-30T14:02:02;28.40;43.10
60717;DHT22;46566;52.700;6.192;2022-08-30T14:04:28;28.40;43.60
60717;DHT22;46566;52.700;6.192;2022-08-30T14:06:57;28.30;43.60
60717;DHT22;46566;52.700;6.192;2022-08-30T14:09:22;28.30;43.60
60717;DHT22;46566;52.700;6.192;2022-08-30T14:11:48;28.30;43.00
60717;DHT22;46566;52.700;6.192;2022-08-30T14:14:14;28.20;43.60
60717;DHT22;46566;52.700;6.192;2022-08-30T14:16:42;28.00;42.30
60717;DHT22;46566;52.700;6.192;2022-08-30T14:19:09;28.00;43.50
60717;DHT22;46566;52.700;6.192;2022-08-30T14:21:36;27.70;43.10
60717;DHT22;46566;52.700;6.192;2022-08-30T14:24:05;27.40;43.80
60717;DHT22;46566;52.700;6.192;2022-08-30T14:26:37;27.40;45.00
60717;DHT22;46566;52.700;6.192;2022-08-30T14:29:06;27.50;45.10
60717;DHT22;46566;52.700;6.192;2022-08-30T14:31:32;27.30;44.80
60717;DHT22;46566;52.700;6.192;2022-08-30T14:33:58;27.30;45.00
60717;DHT22;46566;52.700;6.192;2022-08-30T14:36:24;27.10;45.00
60717;DHT22;46566;52.700;6.192;2022-08-30T14:38:50;27.10;46.10
60717;DHT22;46566;52.700;6.192;2022-08-30T14:41:16;27.20;45.90
60717;DHT22;46566;52.700;6.192;2022-08-30T14:43:41;27.30;46.20
60717;DHT22;46566;52.700;6.192;2022-08-30T14:46:08;27.30;46.00
60717;DHT22;46566;52.700;6.192;2022-08-30T14:48:35;27.30;45.90
60717;DHT22;46566;52.700;6.192;2022-08-30T14:51:09;27.20;45.60
60717;DHT22;46566;52.700;6.192;2022-08-30T14:53:35;27.20;46.00
60717;DHT22;46566;52.700;6.192;2022-08-30T14:56:09;27.00;45.60
60717;DHT22;46566;52.700;6.192;2022-08-30T14:58:35;26.90;45.60
60717;DHT22;46566;52.700;6.192;2022-08-30T15:01:01;27.00;46.50
60717;DHT22;46566;52.700;6.192;2022-08-30T15:03:27;26.80;46.60
60717;DHT22;46566;52.700;6.192;2022-08-30T15:05:53;26.60;46.10
60717;DHT22;46566;52.700;6.192;2022-08-30T15:08:19;26.60;46.40
60717;DHT22;46566;52.700;6.192;2022-08-30T15:10:47;26.60;46.90
60717;DHT22;46566;52.700;6.192;2022-08-30T15:13:13;26.60;47.10
60717;DHT22;46566;52.700;6.192;2022-08-30T15:15:41;26.40;47.40
60717;DHT22;46566;52.700;6.192;2022-08-30T15:18:08;26.40;48.20
60717;DHT22;46566;52.700;6.192;2022-08-30T15:20:33;26.30;48.10
60717;DHT22;46566;52.700;6.192;2022-08-30T15:22:59;26.20;48.50
60717;DHT22;46566;52.700;6.192;2022-08-30T15:25:25;26.10;48.80
60717;DHT22;46566;52.700;6.192;2022-08-30T15:27:51;26.00;48.60
60717;DHT22;46566;52.700;6.192;2022-08-30T15:30:16;26.00;49.10
60717;DHT22;46566;52.700;6.192;2022-08-30T15:32:42;25.80;48.70
60717;DHT22;46566;52.700;6.192;2022-08-30T15:35:08;25.70;49.30
60717;DHT22;46566;52.700;6.192;2022-08-30T15:37:34;25.70;49.90
60717;DHT22;46566;52.700;6.192;2022-08-30T15:40:04;25.50;50.50
60717;DHT22;46566;52.700;6.192;2022-08-30T15:42:30;25.40;50.80
60717;DHT22;46566;52.700;6.192;2022-08-30T15:44:58;25.20;50.80
60717;DHT22;46566;52.700;6.192;2022-08-30T15:47:24;25.20;51.40
60717;DHT22;46566;52.700;6.192;2022-08-30T15:49:54;25.00;51.60
60717;DHT22;46566;52.700;6.192;2022-08-30T15:52:20;24.80;51.80
60717;DHT22;46566;52.700;6.192;2022-08-30T15:54:46;24.70;52.20
60717;DHT22;46566;52.700;6.192;2022-08-30T15:57:12;24.60;52.30
60717;DHT22;46566;52.700;6.192;2022-08-30T15:59:38;24.50;52.50
60717;DHT22;46566;52.700;6.192;2022-08-30T16:02:04;24.50;52.70
60717;DHT22;46566;52.700;6.192;2022-08-30T16:04:29;24.50;53.00
60717;DHT22;46566;52.700;6.192;2022-08-30T16:06:55;24.50;53.50
60717;DHT22;46566;52.700;6.192;2022-08-30T16:09:21;24.60;54.60
60717;DHT22;46566;52.700;6.192;2022-08-30T16:11:47;24.50;54.30
60717;DHT22;46566;52.700;6.192;2022-08-30T16:14:13;24.50;54.50
60717;DHT22;46566;52.700;6.192;2022-08-30T16:16:39;24.60;54.60
60717;DHT22;46566;52.700;6.192;2022-08-30T16:19:06;24.60;55.50
60717;DHT22;46566;52.700;6.192;2022-08-30T16:21:33;24.70;55.20
60717;DHT22;46566;52.700;6.192;2022-08-30T16:24:02;24.60;54.70
60717;DHT22;46566;52.700;6.192;2022-08-30T16:26:29;24.50;54.80
60717;DHT22;46566;52.700;6.192;2022-08-30T16:28:56;24.40;55.30
60717;DHT22;46566;52.700;6.192;2022-08-30T16:31:22;24.20;55.80
60717;DHT22;46566;52.700;6.192;2022-08-30T16:33:48;24.10;56.30
60717;DHT22;46566;52.700;6.192;2022-08-30T16:36:15;24.10;56.60
60717;DHT22;46566;52.700;6.192;2022-08-30T16:38:41;24.10;57.00
60717;DHT22;46566;52.700;6.192;2022-08-30T16:41:10;24.10;56.80
60717;DHT22;46566;52.700;6.192;2022-08-30T16:43:36;24.00;56.80
60717;DHT22;46566;52.700;6.192;2022-08-30T16:46:05;24.00;57.00
60717;DHT22;46566;52.700;6.192;2022-08-30T16:48:31;23.90;56.70
60717;DHT22;46566;52.700;6.192;2022-08-30T16:50:57;23.90;57.00
60717;DHT22;46566;52.700;6.192;2022-08-30T16:53:24;23.70;56.90
60717;DHT22;46566;52.700;6.192;2022-08-30T16:55:50;23.60;57.10
60717;DHT22;46566;52.700;6.192;2022-08-30T16:58:17;23.60;57.80
60717;DHT22;46566;52.700;6.192;2022-08-30T17:00:49;23.50;58.10